sensor_id;sensor_type;location;lat;lon;timestamp;P1;durP1;ratioP1;P2;durP2;ratioP2
69841;SDS011;57138;51.326;-0.068;2023-07-22T00:01:47;8.52;;;2.42;;
69841;SDS011;57138;51.326;-0.068;2023-07-22T00:04:13;3.83;;;1.85;;
69841;SDS011;57138;51.326;-0.068;2023-07-22T00:06:39;5.68;;;2.10;;
69841;SDS011;57138;51.326;-0.068;2023-07-22T00:09:04;13.23;;;3.55;;
69841;SDS011;57138;51.326;-0.068;2023-07-22T00:11:30;5.03;;;2.33;;
69841;SDS011;57138;51.326;-0.068;2023-07-22T00:13:56;7.00;;;2.10;;
69841;SDS011;57138;51.326;-0.068;2023-07-22T00:16:21;5.70;;;2.17;;
69841;SDS011;57138;51.326;-0.068;2023-07-22T00:18:47;4.85;;;1.90;;
69841;SDS011;57138;51.326;-0.068;2023-07-22T00:21:15;7.68;;;2.50;;
69841;SDS011;57138;51.326;-0.068;2023-07-22T00:23:41;5.63;;;2.00;;
69841;SDS011;57138;51.326;-0.068;2023-07-22T00:26:06;10.20;;;2.10;;
69841;SDS011;57138;51.326;-0.068;2023-07-22T00:28:34;6.32;;;2.47;;
69841;SDS011;57138;51.326;-0.068;2023-07-22T00:31:01;4.10;;;1.80;;
69841;SDS011;57138;51.326;-0.068;2023-07-22T00:33:29;7.03;;;2.58;;
69841;SDS011;57138;51.326;-0.068;2023-07-22T00:35:54;6.40;;;2.03;;
69841;SDS011;57138;51.326;-0.068;2023-07-22T00:38:20;12.68;;;2.75;;
69841;SDS011;57138;51.326;-0.068;2023-07-22T00:40:46;8.40;;;2.33;;
69841;SDS011;57138;51.326;-0.068;2023-07-22T00:43:11;7.32;;;2.13;;
69841;SDS011;57138;51.326;-0.068;2023-07-22T00:45:37;10.70;;;3.53;;
69841;SDS011;57138;51.326;-0.068;2023-07-22T00:48:02;5.57;;;2.17;;
69841;SDS011;57138;51.326;-0.068;2023-07-22T00:50:31;5.90;;;2.28;;
69841;SDS011;57138;51.326;-0.068;2023-07-22T00:52:57;6.53;;;2.22;;
69841;SDS011;57138;51.326;-0.068;2023-07-22T00:55:23;4.72;;;2.17;;
69841;SDS011;57138;51.326;-0.068;2023-07-22T00:57:49;4.82;;;1.80;;
69841;SDS011;57138;51.326;-0.068;2023-07-22T01:00:14;5.30;;;1.90;;
69841;SDS011;57138;51.326;-0.068;2023-07-22T01:02:41;5.38;;;2.42;;
69841;SDS011;57138;51.326;-0.068;2023-07-22T01:05:08;8.00;;;2.05;;
69841;SDS011;57138;51.326;-0.068;2023-07-22T01:07:35;4.97;;;1.60;;
69841;SDS011;57138;51.326;-0.068;2023-07-22T01:10:01;6.95;;;1.70;;
69841;SDS011;57138;51.326;-0.068;2023-07-22T01:12:28;4.97;;;1.92;;
69841;SDS011;57138;51.326;-0.068;2023-07-22T01:14:53;7.90;;;2.00;;
69841;SDS011;57138;51.326;-0.068;2023-07-22T01:17:19;4.25;;;1.80;;
69841;SDS011;57138;51.326;-0.068;2023-07-22T01:19:44;5.28;;;2.25;;
69841;SDS011;57138;51.326;-0.068;2023-07-22T01:22:11;6.75;;;2.20;;
69841;SDS011;57138;51.326;-0.068;2023-07-22T01:24:38;8.43;;;1.95;;
69841;SDS011;57138;51.326;-0.068;2023-07-22T01:27:05;5.43;;;1.88;;
69841;SDS011;57138;51.326;-0.068;2023-07-22T01:29:33;5.82;;;2.33;;
69841;SDS011;57138;51.326;-0.068;2023-07-22T01:32:00;8.00;;;1.88;;
69841;SDS011;57138;51.326;-0.068;2023-07-22T01:34:25;5.00;;;1.83;;
69841;SDS011;57138;51.326;-0.068;2023-07-22T01:36:50;5.88;;;1.90;;
69841;SDS011;57138;51.326;-0.068;2023-07-22T01:39:16;7.25;;;1.45;;
69841;SDS011;57138;51.326;-0.068;2023-07-22T01:41:43;2.97;;;1.30;;
69841;SDS011;57138;51.326;-0.068;2023-07-22T01:44:09;9.35;;;1.80;;
69841;SDS011;57138;51.326;-0.068;2023-07-22T01:46:34;10.00;;;3.03;;
69841;SDS011;57138;51.326;-0.068;2023-07-22T01:49:01;3.97;;;1.55;;
69841;SDS011;57138;51.326;-0.068;2023-07-22T01:51:33;5.38;;;1.80;;
69841;SDS011;57138;51.326;-0.068;2023-07-22T01:53:59;6.13;;;2.15;;
69841;SDS011;57138;51.326;-0.068;2023-07-22T01:56:24;4.60;;;1.75;;
69841;SDS011;57138;51.326;-0.068;2023-07-22T01:58:50;5.25;;;1.83;;
69841;SDS011;57138;51.326;-0.068;2023-07-22T02:01:15;5.25;;;1.80;;
69841;SDS011;57138;51.326;-0.068;2023-07-22T02:03:44;4.53;;;1.70;;
69841;SDS011;57138;51.326;-0.068;2023-07-22T02:06:10;7.32;;;2.17;;
69841;SDS011;57138;51.326;-0.068;2023-07-22T02:08:35;4.35;;;1.85;;
69841;SDS011;57138;51.326;-0.068;2023-07-22T02:11:05;5.95;;;2.40;;
69841;SDS011;57138;51.326;-0.068;2023-07-22T02:13:32;8.05;;;2.45;;
69841;SDS011;57138;51.326;-0.068;2023-07-22T02:15:59;6.55;;;2.17;;
69841;SDS011;57138;51.326;-0.068;2023-07-22T02:18:24;6.20;;;2.20;;
69841;SDS011;57138;51.326;-0.068;2023-07-22T02:20:50;5.75;;;2.13;;
69841;SDS011;57138;51.326;-0.068;2023-07-22T02:23:16;8.27;;;2.55;;
69841;SDS011;57138;51.326;-0.068;2023-07-22T02:25:41;8.75;;;2.50;;
69841;SDS011;57138;51.326;-0.068;2023-07-22T02:28:07;6.55;;;2.88;;
69841;SDS011;57138;51.326;-0.068;2023-07-22T02:30:35;6.05;;;2.22;;
69841;SDS011;57138;51.326;-0.068;2023-07-22T02:33:02;7.10;;;1.98;;
69841;SDS011;57138;51.326;-0.068;2023-07-22T02:35:28;7.75;;;2.85;;
69841;SDS011;57138;51.326;-0.068;2023-07-22T02:37:53;7.88;;;2.33;;
69841;SDS011;57138;51.326;-0.068;2023-07-22T02:40:19;7.53;;;2.50;;
69841;SDS011;57138;51.326;-0.068;2023-07-22T02:42:44;6.88;;;2.55;;
69841;SDS011;57138;51.326;-0.068;2023-07-22T02:45:10;8.68;;;3.17;;
69841;SDS011;57138;51.326;-0.068;2023-07-22T02:47:35;6.95;;;2.53;;
69841;SDS011;57138;51.326;-0.068;2023-07-22T02:50:01;5.22;;;2.45;;
69841;SDS011;57138;51.326;-0.068;2023-07-22T02:52:27;5.20;;;2.35;;
69841;SDS011;57138;51.326;-0.068;2023-07-22T02:55:06;7.07;;;2.35;;
69841;SDS011;57138;51.326;-0.068;2023-07-22T02:57:35;5.75;;;2.53;;
69841;SDS011;57138;51.326;-0.068;2023-07-22T03:00:01;8.32;;;2.67;;
69841;SDS011;57138;51.326;-0.068;2023-07-22T03:02:31;4.85;;;2.17;;
69841;SDS011;57138;51.326;-0.068;2023-07-22T03:04:57;6.60;;;2.58;;
69841;SDS011;57138;51.326;-0.068;2023-07-22T03:07:22;6.90;;;2.10;;
69841;SDS011;57138;51.326;-0.068;2023-07-22T03:09:48;8.80;;;2.35;;
69841;SDS011;57138;51.326;-0.068;2023-07-22T03:12:14;8.00;;;2.40;;
69841;SDS011;57138;51.326;-0.068;2023-07-22T03:14:39;7.47;;;2.40;;
69841;SDS011;57138;51.326;-0.068;2023-07-22T03:17:05;5.15;;;2.25;;
69841;SDS011;57138;51.326;-0.068;2023-07-22T03:19:31;4.88;;;2.20;;
69841;SDS011;57138;51.326;-0.068;2023-07-22T03:21:56;6.13;;;1.92;;
69841;SDS011;57138;51.326;-0.068;2023-07-22T03:24:21;6.00;;;2.00;;
69841;SDS011;57138;51.326;-0.068;2023-07-22T03:26:47;8.15;;;2.50;;
69841;SDS011;57138;51.326;-0.068;2023-07-22T03:29:12;7.10;;;2.42;;
69841;SDS011;57138;51.326;-0.068;2023-07-22T03:31:38;6.65;;;2.17;;
69841;SDS011;57138;51.326;-0.068;2023-07-22T03:34:04;7.00;;;2.08;;
69841;SDS011;57138;51.326;-0.068;2023-07-22T03:36:29;5.22;;;1.80;;
69841;SDS011;57138;51.326;-0.068;2023-07-22T03:38:58;8.10;;;2.08;;
69841;SDS011;57138;51.326;-0.068;2023-07-22T03:41:24;7.90;;;2.13;;
69841;SDS011;57138;51.326;-0.068;2023-07-22T03:43:49;7.05;;;2.13;;
69841;SDS011;57138;51.326;-0.068;2023-07-22T03:46:14;8.48;;;2.00;;
69841;SDS011;57138;51.326;-0.068;2023-07-22T03:48:40;6.38;;;2.08;;
69841;SDS011;57138;51.326;-0.068;2023-07-22T03:51:05;7.15;;;2.90;;
69841;SDS011;57138;51.326;-0.068;2023-07-22T03:53:30;5.40;;;2.20;;
69841;SDS011;57138;51.326;-0.068;2023-07-22T03:55:56;5.15;;;1.90;;
69841;SDS011;57138;51.326;-0.068;2023-07-22T03:58:21;6.85;;;2.40;;
69841;SDS011;57138;51.326;-0.068;2023-07-22T04:00:50;6.45;;;1.95;;
69841;SDS011;57138;51.326;-0.068;2023-07-22T04:03:15;5.15;;;2.00;;
69841;SDS011;57138;51.326;-0.068;2023-07-22T04:05:40;6.32;;;2.50;;
69841;SDS011;57138;51.326;-0.068;2023-07-22T04:08:06;5.97;;;1.88;;
69841;SDS011;57138;51.326;-0.068;2023-07-22T04:10:31;9.05;;;2.17;;
69841;SDS011;57138;51.326;-0.068;2023-07-22T04:12:57;5.30;;;2.03;;
69841;SDS011;57138;51.326;-0.068;2023-07-22T04:15:22;4.93;;;2.22;;
69841;SDS011;57138;51.326;-0.068;2023-07-22T04:17:47;6.63;;;2.20;;
69841;SDS011;57138;51.326;-0.068;2023-07-22T04:20:13;6.25;;;2.05;;
69841;SDS011;57138;51.326;-0.068;2023-07-22T04:22:38;6.20;;;2.08;;
69841;SDS011;57138;51.326;-0.068;2023-07-22T04:25:05;5.30;;;2.42;;
69841;SDS011;57138;51.326;-0.068;2023-07-22T04:27:31;12.85;;;3.55;;
69841;SDS011;57138;51.326;-0.068;2023-07-22T04:29:56;6.72;;;2.17;;
69841;SDS011;57138;51.326;-0.068;2023-07-22T04:32:21;10.43;;;1.85;;
69841;SDS011;57138;51.326;-0.068;2023-07-22T04:34:47;7.53;;;2.70;;
69841;SDS011;57138;51.326;-0.068;2023-07-22T04:37:12;6.63;;;2.10;;
69841;SDS011;57138;51.326;-0.068;2023-07-22T04:39:38;4.22;;;2.00;;
69841;SDS011;57138;51.326;-0.068;2023-07-22T04:42:04;7.45;;;2.80;;
69841;SDS011;57138;51.326;-0.068;2023-07-22T04:44:30;5.68;;;2.15;;
69841;SDS011;57138;51.326;-0.068;2023-07-22T04:46:55;5.72;;;1.88;;
69841;SDS011;57138;51.326;-0.068;2023-07-22T04:49:20;7.28;;;2.05;;
69841;SDS011;57138;51.326;-0.068;2023-07-22T04:51:47;5.90;;;2.13;;
69841;SDS011;57138;51.326;-0.068;2023-07-22T04:54:13;5.25;;;2.13;;
69841;SDS011;57138;51.326;-0.068;2023-07-22T04:56:40;8.77;;;1.77;;
69841;SDS011;57138;51.326;-0.068;2023-07-22T04:59:06;5.03;;;1.73;;
69841;SDS011;57138;51.326;-0.068;2023-07-22T05:01:32;4.38;;;1.67;;
69841;SDS011;57138;51.326;-0.068;2023-07-22T05:03:57;6.35;;;1.75;;
69841;SDS011;57138;51.326;-0.068;2023-07-22T05:06:23;5.78;;;1.70;;
69841;SDS011;57138;51.326;-0.068;2023-07-22T05:08:50;4.90;;;1.90;;
69841;SDS011;57138;51.326;-0.068;2023-07-22T05:11:15;4.47;;;1.48;;
69841;SDS011;57138;51.326;-0.068;2023-07-22T05:13:41;5.38;;;1.40;;
69841;SDS011;57138;51.326;-0.068;2023-07-22T05:16:07;4.88;;;1.50;;
69841;SDS011;57138;51.326;-0.068;2023-07-22T05:18:32;9.82;;;3.22;;
69841;SDS011;57138;51.326;-0.068;2023-07-22T05:20:58;9.95;;;1.80;;
69841;SDS011;57138;51.326;-0.068;2023-07-22T05:23:23;4.78;;;1.60;;
69841;SDS011;57138;51.326;-0.068;2023-07-22T05:25:52;3.22;;;1.25;;
69841;SDS011;57138;51.326;-0.068;2023-07-22T05:28:18;3.90;;;1.30;;
69841;SDS011;57138;51.326;-0.068;2023-07-22T05:30:43;6.28;;;1.65;;
69841;SDS011;57138;51.326;-0.068;2023-07-22T05:33:09;6.45;;;2.70;;
69841;SDS011;57138;51.326;-0.068;2023-07-22T05:35:34;7.43;;;1.67;;
69841;SDS011;57138;51.326;-0.068;2023-07-22T05:38:00;11.32;;;3.10;;
69841;SDS011;57138;51.326;-0.068;2023-07-22T05:40:28;5.55;;;1.75;;
69841;SDS011;57138;51.326;-0.068;2023-07-22T05:42:54;5.28;;;2.03;;
69841;SDS011;57138;51.326;-0.068;2023-07-22T05:45:19;10.30;;;2.05;;
69841;SDS011;57138;51.326;-0.068;2023-07-22T05:47:45;6.40;;;2.20;;
69841;SDS011;57138;51.326;-0.068;2023-07-22T05:50:10;10.60;;;3.03;;
69841;SDS011;57138;51.326;-0.068;2023-07-22T05:52:36;4.22;;;2.05;;
69841;SDS011;57138;51.326;-0.068;2023-07-22T05:55:02;7.15;;;2.13;;
69841;SDS011;57138;51.326;-0.068;2023-07-22T05:57:28;7.88;;;2.45;;
69841;SDS011;57138;51.326;-0.068;2023-07-22T05:59:54;7.80;;;3.17;;
69841;SDS011;57138;51.326;-0.068;2023-07-22T06:02:20;9.10;;;2.22;;
69841;SDS011;57138;51.326;-0.068;2023-07-22T06:04:45;7.93;;;2.05;;
69841;SDS011;57138;51.326;-0.068;2023-07-22T06:07:10;10.32;;;2.60;;
69841;SDS011;57138;51.326;-0.068;2023-07-22T06:09:37;7.68;;;2.30;;
69841;SDS011;57138;51.326;-0.068;2023-07-22T06:12:02;8.70;;;2.40;;
69841;SDS011;57138;51.326;-0.068;2023-07-22T06:14:29;7.35;;;2.88;;
69841;SDS011;57138;51.326;-0.068;2023-07-22T06:16:54;8.88;;;2.45;;
69841;SDS011;57138;51.326;-0.068;2023-07-22T06:19:20;6.47;;;2.63;;
69841;SDS011;57138;51.326;-0.068;2023-07-22T06:21:45;8.80;;;2.05;;
69841;SDS011;57138;51.326;-0.068;2023-07-22T06:24:10;8.73;;;1.95;;
69841;SDS011;57138;51.326;-0.068;2023-07-22T06:26:36;5.82;;;2.10;;
69841;SDS011;57138;51.326;-0.068;2023-07-22T06:29:02;6.05;;;2.15;;
69841;SDS011;57138;51.326;-0.068;2023-07-22T06:31:28;8.40;;;2.40;;
69841;SDS011;57138;51.326;-0.068;2023-07-22T06:33:56;9.27;;;3.10;;
69841;SDS011;57138;51.326;-0.068;2023-07-22T06:36:22;9.55;;;2.38;;
69841;SDS011;57138;51.326;-0.068;2023-07-22T06:38:47;7.75;;;2.15;;
69841;SDS011;57138;51.326;-0.068;2023-07-22T06:41:13;5.85;;;2.03;;
69841;SDS011;57138;51.326;-0.068;2023-07-22T06:43:38;7.88;;;2.58;;
69841;SDS011;57138;51.326;-0.068;2023-07-22T06:46:05;9.75;;;2.13;;
69841;SDS011;57138;51.326;-0.068;2023-07-22T06:48:31;5.47;;;1.70;;
69841;SDS011;57138;51.326;-0.068;2023-07-22T06:50:57;5.35;;;1.80;;
69841;SDS011;57138;51.326;-0.068;2023-07-22T06:53:23;9.70;;;2.30;;
69841;SDS011;57138;51.326;-0.068;2023-07-22T06:55:49;10.48;;;2.30;;
69841;SDS011;57138;51.326;-0.068;2023-07-22T06:58:16;8.57;;;2.13;;
69841;SDS011;57138;51.326;-0.068;2023-07-22T07:00:41;7.97;;;2.22;;
69841;SDS011;57138;51.326;-0.068;2023-07-22T07:03:07;6.35;;;2.55;;
69841;SDS011;57138;51.326;-0.068;2023-07-22T07:05:33;7.32;;;2.25;;
69841;SDS011;57138;51.326;-0.068;2023-07-22T07:07:59;6.63;;;1.83;;
69841;SDS011;57138;51.326;-0.068;2023-07-22T07:10:25;6.22;;;2.78;;
69841;SDS011;57138;51.326;-0.068;2023-07-22T07:12:51;5.18;;;1.83;;
69841;SDS011;57138;51.326;-0.068;2023-07-22T07:15:17;7.15;;;2.30;;
69841;SDS011;57138;51.326;-0.068;2023-07-22T07:17:42;5.22;;;1.83;;
69841;SDS011;57138;51.326;-0.068;2023-07-22T07:20:08;5.03;;;1.90;;
69841;SDS011;57138;51.326;-0.068;2023-07-22T07:22:34;7.38;;;2.33;;
69841;SDS011;57138;51.326;-0.068;2023-07-22T07:24:59;4.38;;;1.50;;
69841;SDS011;57138;51.326;-0.068;2023-07-22T07:27:24;8.20;;;3.13;;
69841;SDS011;57138;51.326;-0.068;2023-07-22T07:29:50;6.43;;;2.10;;
69841;SDS011;57138;51.326;-0.068;2023-07-22T07:32:16;8.38;;;1.88;;
69841;SDS011;57138;51.326;-0.068;2023-07-22T07:34:42;5.70;;;1.58;;
69841;SDS011;57138;51.326;-0.068;2023-07-22T07:37:08;6.93;;;1.90;;
69841;SDS011;57138;51.326;-0.068;2023-07-22T07:39:33;4.57;;;1.55;;
69841;SDS011;57138;51.326;-0.068;2023-07-22T07:41:59;4.28;;;1.50;;
69841;SDS011;57138;51.326;-0.068;2023-07-22T07:44:26;6.35;;;1.60;;
69841;SDS011;57138;51.326;-0.068;2023-07-22T07:46:51;4.85;;;1.45;;
69841;SDS011;57138;51.326;-0.068;2023-07-22T07:49:17;5.47;;;1.55;;
69841;SDS011;57138;51.326;-0.068;2023-07-22T07:51:43;9.45;;;2.42;;
69841;SDS011;57138;51.326;-0.068;2023-07-22T07:54:09;3.75;;;1.10;;
69841;SDS011;57138;51.326;-0.068;2023-07-22T07:56:35;5.20;;;1.38;;
69841;SDS011;57138;51.326;-0.068;2023-07-22T07:59:00;3.75;;;1.20;;
69841;SDS011;57138;51.326;-0.068;2023-07-22T08:01:27;5.30;;;1.30;;
69841;SDS011;57138;51.326;-0.068;2023-07-22T08:03:53;4.22;;;1.27;;
69841;SDS011;57138;51.326;-0.068;2023-07-22T08:06:18;3.53;;;1.40;;
69841;SDS011;57138;51.326;-0.068;2023-07-22T08:08:43;6.20;;;1.25;;
69841;SDS011;57138;51.326;-0.068;2023-07-22T08:11:10;7.35;;;1.40;;
69841;SDS011;57138;51.326;-0.068;2023-07-22T08:13:38;3.72;;;1.25;;
69841;SDS011;57138;51.326;-0.068;2023-07-22T08:16:06;4.32;;;1.15;;
69841;SDS011;57138;51.326;-0.068;2023-07-22T08:18:32;5.70;;;1.25;;
69841;SDS011;57138;51.326;-0.068;2023-07-22T08:20:59;3.28;;;1.15;;
69841;SDS011;57138;51.326;-0.068;2023-07-22T08:23:27;4.43;;;1.10;;
69841;SDS011;57138;51.326;-0.068;2023-07-22T08:25:53;4.80;;;1.27;;
69841;SDS011;57138;51.326;-0.068;2023-07-22T08:28:18;2.95;;;0.95;;
69841;SDS011;57138;51.326;-0.068;2023-07-22T08:30:47;3.33;;;1.00;;
69841;SDS011;57138;51.326;-0.068;2023-07-22T08:33:13;3.70;;;1.25;;
69841;SDS011;57138;51.326;-0.068;2023-07-22T08:35:40;4.30;;;1.00;;
69841;SDS011;57138;51.326;-0.068;2023-07-22T08:38:05;4.80;;;0.90;;
69841;SDS011;57138;51.326;-0.068;2023-07-22T08:40:38;5.18;;;1.02;;
69841;SDS011;57138;51.326;-0.068;2023-07-22T08:43:05;2.45;;;0.80;;
69841;SDS011;57138;51.326;-0.068;2023-07-22T08:45:33;6.15;;;1.30;;
69841;SDS011;57138;51.326;-0.068;2023-07-22T08:48:08;6.75;;;1.20;;
69841;SDS011;57138;51.326;-0.068;2023-07-22T08:50:46;4.35;;;1.67;;
69841;SDS011;57138;51.326;-0.068;2023-07-22T08:53:30;3.92;;;1.13;;
69841;SDS011;57138;51.326;-0.068;2023-07-22T08:55:58;3.47;;;1.27;;
69841;SDS011;57138;51.326;-0.068;2023-07-22T08:58:23;4.40;;;1.67;;
69841;SDS011;57138;51.326;-0.068;2023-07-22T09:00:49;5.07;;;1.35;;
69841;SDS011;57138;51.326;-0.068;2023-07-22T09:03:16;4.30;;;1.63;;
69841;SDS011;57138;51.326;-0.068;2023-07-22T09:05:44;5.15;;;1.50;;
69841;SDS011;57138;51.326;-0.068;2023-07-22T09:08:12;3.92;;;1.38;;
69841;SDS011;57138;51.326;-0.068;2023-07-22T09:10:37;5.07;;;1.52;;
69841;SDS011;57138;51.326;-0.068;2023-07-22T09:13:04;7.55;;;2.58;;
69841;SDS011;57138;51.326;-0.068;2023-07-22T09:15:31;8.38;;;1.77;;
69841;SDS011;57138;51.326;-0.068;2023-07-22T09:18:01;6.30;;;2.10;;
69841;SDS011;57138;51.326;-0.068;2023-07-22T09:20:29;7.88;;;1.85;;
69841;SDS011;57138;51.326;-0.068;2023-07-22T09:22:58;6.35;;;1.45;;
69841;SDS011;57138;51.326;-0.068;2023-07-22T09:25:26;7.00;;;1.83;;
69841;SDS011;57138;51.326;-0.068;2023-07-22T09:27:53;5.05;;;1.85;;
69841;SDS011;57138;51.326;-0.068;2023-07-22T09:30:35;11.45;;;2.67;;
69841;SDS011;57138;51.326;-0.068;2023-07-22T09:33:21;8.20;;;2.53;;
69841;SDS011;57138;51.326;-0.068;2023-07-22T09:35:50;7.05;;;1.83;;
69841;SDS011;57138;51.326;-0.068;2023-07-22T09:38:22;9.60;;;2.72;;
69841;SDS011;57138;51.326;-0.068;2023-07-22T09:40:49;8.40;;;2.80;;
69841;SDS011;57138;51.326;-0.068;2023-07-22T09:43:14;5.78;;;1.70;;
69841;SDS011;57138;51.326;-0.068;2023-07-22T09:45:40;9.10;;;2.15;;
69841;SDS011;57138;51.326;-0.068;2023-07-22T09:48:06;6.65;;;2.13;;
69841;SDS011;57138;51.326;-0.068;2023-07-22T09:50:34;6.50;;;1.85;;
69841;SDS011;57138;51.326;-0.068;2023-07-22T09:53:01;8.18;;;2.47;;
69841;SDS011;57138;51.326;-0.068;2023-07-22T09:55:30;6.07;;;1.83;;
69841;SDS011;57138;51.326;-0.068;2023-07-22T09:57:58;5.25;;;1.77;;
69841;SDS011;57138;51.326;-0.068;2023-07-22T10:00:28;12.20;;;3.97;;
69841;SDS011;57138;51.326;-0.068;2023-07-22T10:02:56;11.30;;;3.65;;
69841;SDS011;57138;51.326;-0.068;2023-07-22T10:05:22;9.27;;;2.78;;
69841;SDS011;57138;51.326;-0.068;2023-07-22T10:07:55;5.40;;;1.95;;
69841;SDS011;57138;51.326;-0.068;2023-07-22T10:10:23;5.18;;;1.70;;
69841;SDS011;57138;51.326;-0.068;2023-07-22T10:12:56;12.70;;;3.08;;
69841;SDS011;57138;51.326;-0.068;2023-07-22T10:15:24;5.60;;;2.15;;
69841;SDS011;57138;51.326;-0.068;2023-07-22T10:17:53;5.70;;;2.10;;
69841;SDS011;57138;51.326;-0.068;2023-07-22T10:20:20;7.20;;;2.45;;
69841;SDS011;57138;51.326;-0.068;2023-07-22T10:22:47;4.93;;;2.10;;
69841;SDS011;57138;51.326;-0.068;2023-07-22T10:25:19;6.78;;;2.75;;
69841;SDS011;57138;51.326;-0.068;2023-07-22T10:27:48;6.40;;;2.20;;
69841;SDS011;57138;51.326;-0.068;2023-07-22T10:30:20;6.78;;;2.58;;
69841;SDS011;57138;51.326;-0.068;2023-07-22T10:32:47;9.30;;;2.60;;
69841;SDS011;57138;51.326;-0.068;2023-07-22T10:35:21;6.10;;;2.10;;
69841;SDS011;57138;51.326;-0.068;2023-07-22T10:37:56;5.97;;;2.20;;
69841;SDS011;57138;51.326;-0.068;2023-07-22T10:40:33;7.00;;;1.73;;
69841;SDS011;57138;51.326;-0.068;2023-07-22T10:43:24;3.83;;;1.70;;
69841;SDS011;57138;51.326;-0.068;2023-07-22T10:45:53;9.23;;;2.00;;
69841;SDS011;57138;51.326;-0.068;2023-07-22T10:48:21;6.43;;;1.83;;
69841;SDS011;57138;51.326;-0.068;2023-07-22T10:50:49;6.38;;;2.05;;
69841;SDS011;57138;51.326;-0.068;2023-07-22T10:53:20;10.43;;;2.35;;
69841;SDS011;57138;51.326;-0.068;2023-07-22T11:07:03;4.10;;;1.75;;
69841;SDS011;57138;51.326;-0.068;2023-07-22T11:09:33;5.05;;;1.88;;
69841;SDS011;57138;51.326;-0.068;2023-07-22T11:12:11;12.70;;;2.00;;
69841;SDS011;57138;51.326;-0.068;2023-07-22T11:14:38;7.45;;;1.70;;
69841;SDS011;57138;51.326;-0.068;2023-07-22T11:17:15;5.50;;;1.63;;
69841;SDS011;57138;51.326;-0.068;2023-07-22T11:19:42;6.22;;;1.52;;
69841;SDS011;57138;51.326;-0.068;2023-07-22T11:22:10;4.93;;;1.80;;
69841;SDS011;57138;51.326;-0.068;2023-07-22T11:24:36;6.25;;;1.70;;
69841;SDS011;57138;51.326;-0.068;2023-07-22T11:27:05;5.43;;;1.73;;
69841;SDS011;57138;51.326;-0.068;2023-07-22T11:29:33;7.18;;;1.60;;
69841;SDS011;57138;51.326;-0.068;2023-07-22T11:32:00;7.05;;;1.80;;
69841;SDS011;57138;51.326;-0.068;2023-07-22T11:34:29;7.22;;;1.92;;
69841;SDS011;57138;51.326;-0.068;2023-07-22T11:36:55;8.77;;;1.95;;
69841;SDS011;57138;51.326;-0.068;2023-07-22T11:39:23;5.00;;;1.85;;
69841;SDS011;57138;51.326;-0.068;2023-07-22T11:41:50;4.90;;;1.83;;
69841;SDS011;57138;51.326;-0.068;2023-07-22T11:44:17;7.10;;;2.05;;
69841;SDS011;57138;51.326;-0.068;2023-07-22T11:46:53;8.43;;;1.98;;
69841;SDS011;57138;51.326;-0.068;2023-07-22T11:52:01;6.63;;;1.98;;
69841;SDS011;57138;51.326;-0.068;2023-07-22T11:54:41;5.97;;;1.88;;
69841;SDS011;57138;51.326;-0.068;2023-07-22T11:57:20;5.55;;;1.85;;
69841;SDS011;57138;51.326;-0.068;2023-07-22T11:59:50;10.13;;;2.35;;
69841;SDS011;57138;51.326;-0.068;2023-07-22T12:02:18;10.05;;;2.95;;
69841;SDS011;57138;51.326;-0.068;2023-07-22T12:05:02;9.02;;;2.50;;
69841;SDS011;57138;51.326;-0.068;2023-07-22T12:07:31;8.73;;;2.72;;
69841;SDS011;57138;51.326;-0.068;2023-07-22T12:10:01;8.95;;;2.70;;
69841;SDS011;57138;51.326;-0.068;2023-07-22T12:15:27;9.45;;;3.25;;
69841;SDS011;57138;51.326;-0.068;2023-07-22T12:17:53;7.40;;;3.42;;
69841;SDS011;57138;51.326;-0.068;2023-07-22T12:20:26;8.10;;;3.65;;
69841;SDS011;57138;51.326;-0.068;2023-07-22T12:22:55;13.15;;;3.80;;
69841;SDS011;57138;51.326;-0.068;2023-07-22T12:25:21;7.18;;;3.17;;
69841;SDS011;57138;51.326;-0.068;2023-07-22T12:27:47;8.20;;;3.55;;
69841;SDS011;57138;51.326;-0.068;2023-07-22T12:30:12;8.50;;;3.85;;
69841;SDS011;57138;51.326;-0.068;2023-07-22T12:32:41;10.73;;;3.80;;
69841;SDS011;57138;51.326;-0.068;2023-07-22T12:35:07;10.48;;;3.60;;
69841;SDS011;57138;51.326;-0.068;2023-07-22T12:37:34;10.88;;;3.60;;
69841;SDS011;57138;51.326;-0.068;2023-07-22T12:40:00;10.52;;;3.97;;
69841;SDS011;57138;51.326;-0.068;2023-07-22T12:42:26;15.52;;;3.10;;
69841;SDS011;57138;51.326;-0.068;2023-07-22T12:47:43;10.90;;;3.95;;
69841;SDS011;57138;51.326;-0.068;2023-07-22T12:50:08;8.15;;;3.40;;
69841;SDS011;57138;51.326;-0.068;2023-07-22T12:52:34;10.00;;;4.10;;
69841;SDS011;57138;51.326;-0.068;2023-07-22T12:55:00;17.23;;;4.60;;
69841;SDS011;57138;51.326;-0.068;2023-07-22T12:57:30;14.50;;;4.15;;
69841;SDS011;57138;51.326;-0.068;2023-07-22T13:00:02;15.20;;;3.90;;
69841;SDS011;57138;51.326;-0.068;2023-07-22T13:02:32;11.80;;;4.72;;
69841;SDS011;57138;51.326;-0.068;2023-07-22T13:04:58;15.57;;;4.47;;
69841;SDS011;57138;51.326;-0.068;2023-07-22T13:07:23;11.85;;;4.10;;
69841;SDS011;57138;51.326;-0.068;2023-07-22T13:09:49;12.68;;;4.93;;
69841;SDS011;57138;51.326;-0.068;2023-07-22T13:12:24;9.80;;;4.22;;
69841;SDS011;57138;51.326;-0.068;2023-07-22T13:14:50;10.65;;;4.47;;
69841;SDS011;57138;51.326;-0.068;2023-07-22T13:17:15;9.93;;;4.65;;
69841;SDS011;57138;51.326;-0.068;2023-07-22T13:19:40;12.48;;;4.90;;
69841;SDS011;57138;51.326;-0.068;2023-07-22T13:22:06;12.23;;;5.50;;
69841;SDS011;57138;51.326;-0.068;2023-07-22T13:24:34;13.65;;;5.32;;
69841;SDS011;57138;51.326;-0.068;2023-07-22T13:27:00;12.52;;;5.03;;
69841;SDS011;57138;51.326;-0.068;2023-07-22T13:29:26;12.45;;;6.28;;
69841;SDS011;57138;51.326;-0.068;2023-07-22T13:31:52;10.02;;;4.88;;
69841;SDS011;57138;51.326;-0.068;2023-07-22T13:34:18;12.50;;;6.00;;
69841;SDS011;57138;51.326;-0.068;2023-07-22T13:36:44;15.60;;;6.70;;
69841;SDS011;57138;51.326;-0.068;2023-07-22T13:39:09;11.05;;;5.60;;
69841;SDS011;57138;51.326;-0.068;2023-07-22T13:41:35;9.73;;;5.50;;
69841;SDS011;57138;51.326;-0.068;2023-07-22T13:44:00;17.80;;;6.20;;
69841;SDS011;57138;51.326;-0.068;2023-07-22T13:46:26;12.35;;;6.93;;
69841;SDS011;57138;51.326;-0.068;2023-07-22T13:48:51;16.08;;;6.38;;
69841;SDS011;57138;51.326;-0.068;2023-07-22T13:51:16;13.13;;;6.22;;
69841;SDS011;57138;51.326;-0.068;2023-07-22T13:53:42;18.50;;;7.43;;
69841;SDS011;57138;51.326;-0.068;2023-07-22T13:56:07;12.73;;;6.35;;
69841;SDS011;57138;51.326;-0.068;2023-07-22T13:58:33;12.90;;;6.20;;
69841;SDS011;57138;51.326;-0.068;2023-07-22T14:00:58;14.40;;;6.45;;
69841;SDS011;57138;51.326;-0.068;2023-07-22T14:03:24;13.52;;;7.10;;
69841;SDS011;57138;51.326;-0.068;2023-07-22T14:05:49;12.43;;;6.70;;
69841;SDS011;57138;51.326;-0.068;2023-07-22T14:08:15;14.50;;;7.05;;
69841;SDS011;57138;51.326;-0.068;2023-07-22T14:10:40;14.60;;;6.38;;
69841;SDS011;57138;51.326;-0.068;2023-07-22T14:13:06;11.82;;;5.50;;
69841;SDS011;57138;51.326;-0.068;2023-07-22T14:15:31;14.32;;;6.45;;
69841;SDS011;57138;51.326;-0.068;2023-07-22T14:17:57;12.82;;;5.70;;
69841;SDS011;57138;51.326;-0.068;2023-07-22T14:20:22;14.40;;;6.85;;
69841;SDS011;57138;51.326;-0.068;2023-07-22T14:22:48;15.18;;;6.07;;
69841;SDS011;57138;51.326;-0.068;2023-07-22T14:25:17;13.05;;;6.38;;
69841;SDS011;57138;51.326;-0.068;2023-07-22T14:27:43;11.27;;;5.00;;
69841;SDS011;57138;51.326;-0.068;2023-07-22T14:30:09;13.82;;;5.65;;
69841;SDS011;57138;51.326;-0.068;2023-07-22T14:32:35;17.98;;;5.90;;
69841;SDS011;57138;51.326;-0.068;2023-07-22T14:35:01;16.23;;;5.72;;
69841;SDS011;57138;51.326;-0.068;2023-07-22T14:37:28;13.20;;;6.53;;
69841;SDS011;57138;51.326;-0.068;2023-07-22T14:39:53;15.35;;;6.15;;
69841;SDS011;57138;51.326;-0.068;2023-07-22T14:42:18;11.35;;;5.53;;
69841;SDS011;57138;51.326;-0.068;2023-07-22T14:44:44;15.38;;;5.97;;
69841;SDS011;57138;51.326;-0.068;2023-07-22T14:47:10;11.50;;;5.63;;
69841;SDS011;57138;51.326;-0.068;2023-07-22T14:49:36;14.35;;;7.03;;